sensor_id;sensor_type;location;lat;lon;timestamp;P1;durP1;ratioP1;P2;durP2;ratioP2
6979;SDS011;3530;52.832;10.680;2022-10-14T00:00:35;7.60;;;6.70;;
6979;SDS011;3530;52.832;10.680;2022-10-14T00:03:21;10.70;;;6.47;;
6979;SDS011;3530;52.832;10.680;2022-10-14T00:06:08;12.00;;;7.95;;
6979;SDS011;3530;52.832;10.680;2022-10-14T00:09:00;12.10;;;7.20;;
6979;SDS011;3530;52.832;10.680;2022-10-14T00:11:47;11.93;;;6.95;;
6979;SDS011;3530;52.832;10.680;2022-10-14T00:14:33;11.15;;;7.40;;
6979;SDS011;3530;52.832;10.680;2022-10-14T00:17:19;10.45;;;7.07;;
6979;SDS011;3530;52.832;10.680;2022-10-14T00:20:05;9.80;;;6.90;;
6979;SDS011;3530;52.832;10.680;2022-10-14T00:22:51;13.38;;;7.88;;
6979;SDS011;3530;52.832;10.680;2022-10-14T00:25:37;10.25;;;7.70;;
6979;SDS011;3530;52.832;10.680;2022-10-14T00:28:23;8.52;;;7.05;;
6979;SDS011;3530;52.832;10.680;2022-10-14T00:31:08;9.90;;;7.13;;
6979;SDS011;3530;52.832;10.680;2022-10-14T00:33:54;10.40;;;7.45;;
6979;SDS011;3530;52.832;10.680;2022-10-14T00:36:40;9.80;;;7.32;;
6979;SDS011;3530;52.832;10.680;2022-10-14T00:39:27;11.82;;;7.68;;
6979;SDS011;3530;52.832;10.680;2022-10-14T00:42:13;10.57;;;7.28;;
6979;SDS011;3530;52.832;10.680;2022-10-14T00:45:04;10.38;;;6.68;;
6979;SDS011;3530;52.832;10.680;2022-10-14T00:48:00;9.98;;;6.90;;
6979;SDS011;3530;52.832;10.680;2022-10-14T00:50:46;10.10;;;7.18;;
6979;SDS011;3530;52.832;10.680;2022-10-14T00:53:33;9.15;;;7.03;;
6979;SDS011;3530;52.832;10.680;2022-10-14T00:56:22;8.88;;;7.07;;
6979;SDS011;3530;52.832;10.680;2022-10-14T00:59:09;11.40;;;7.38;;
6979;SDS011;3530;52.832;10.680;2022-10-14T01:01:55;10.02;;;7.15;;
6979;SDS011;3530;52.832;10.680;2022-10-14T01:04:41;7.85;;;6.63;;
6979;SDS011;3530;52.832;10.680;2022-10-14T01:07:30;8.77;;;6.88;;
6979;SDS011;3530;52.832;10.680;2022-10-14T01:10:36;9.73;;;7.68;;
6979;SDS011;3530;52.832;10.680;2022-10-14T01:13:29;11.48;;;7.55;;
6979;SDS011;3530;52.832;10.680;2022-10-14T01:16:22;8.25;;;6.63;;
6979;SDS011;3530;52.832;10.680;2022-10-14T01:19:15;9.05;;;7.18;;
6979;SDS011;3530;52.832;10.680;2022-10-14T01:22:27;10.95;;;7.80;;
6979;SDS011;3530;52.832;10.680;2022-10-14T01:29:13;8.85;;;6.78;;
6979;SDS011;3530;52.832;10.680;2022-10-14T01:32:30;8.10;;;6.40;;
6979;SDS011;3530;52.832;10.680;2022-10-14T01:38:17;15.57;;;7.95;;
6979;SDS011;3530;52.832;10.680;2022-10-14T01:41:11;12.02;;;8.07;;
6979;SDS011;3530;52.832;10.680;2022-10-14T01:44:02;11.20;;;7.88;;
6979;SDS011;3530;52.832;10.680;2022-10-14T01:46:50;8.85;;;7.40;;
6979;SDS011;3530;52.832;10.680;2022-10-14T01:49:43;8.98;;;7.82;;
6979;SDS011;3530;52.832;10.680;2022-10-14T01:52:32;9.77;;;7.32;;
6979;SDS011;3530;52.832;10.680;2022-10-14T01:55:22;9.25;;;7.47;;
6979;SDS011;3530;52.832;10.680;2022-10-14T01:58:09;12.48;;;8.10;;
6979;SDS011;3530;52.832;10.680;2022-10-14T02:00:57;11.02;;;7.60;;
6979;SDS011;3530;52.832;10.680;2022-10-14T02:03:44;12.63;;;8.15;;
6979;SDS011;3530;52.832;10.680;2022-10-14T02:06:34;12.52;;;8.45;;
6979;SDS011;3530;52.832;10.680;2022-10-14T02:09:31;9.10;;;7.65;;
6979;SDS011;3530;52.832;10.680;2022-10-14T02:18:13;15.00;;;7.88;;
6979;SDS011;3530;52.832;10.680;2022-10-14T02:21:19;10.60;;;7.70;;
6979;SDS011;3530;52.832;10.680;2022-10-14T02:24:21;10.30;;;8.43;;
6979;SDS011;3530;52.832;10.680;2022-10-14T02:27:10;12.68;;;7.80;;
6979;SDS011;3530;52.832;10.680;2022-10-14T02:29:58;6.75;;;5.90;;
6979;SDS011;3530;52.832;10.680;2022-10-14T02:32:44;11.20;;;7.78;;
6979;SDS011;3530;52.832;10.680;2022-10-14T02:35:31;11.48;;;8.13;;
6979;SDS011;3530;52.832;10.680;2022-10-14T02:38:16;12.88;;;7.53;;
6979;SDS011;3530;52.832;10.680;2022-10-14T02:41:04;11.48;;;7.85;;
6979;SDS011;3530;52.832;10.680;2022-10-14T02:43:52;13.18;;;8.45;;
6979;SDS011;3530;52.832;10.680;2022-10-14T02:46:38;9.02;;;6.43;;
6979;SDS011;3530;52.832;10.680;2022-10-14T02:49:24;10.55;;;8.35;;
6979;SDS011;3530;52.832;10.680;2022-10-14T02:52:10;8.88;;;7.47;;
6979;SDS011;3530;52.832;10.680;2022-10-14T02:54:55;9.60;;;7.90;;
6979;SDS011;3530;52.832;10.680;2022-10-14T02:57:41;13.15;;;9.68;;
6979;SDS011;3530;52.832;10.680;2022-10-14T03:00:27;13.80;;;9.15;;
6979;SDS011;3530;52.832;10.680;2022-10-14T03:03:12;13.98;;;9.18;;
6979;SDS011;3530;52.832;10.680;2022-10-14T03:05:58;11.40;;;8.45;;
6979;SDS011;3530;52.832;10.680;2022-10-14T03:08:44;15.75;;;9.23;;
6979;SDS011;3530;52.832;10.680;2022-10-14T03:11:30;13.00;;;8.38;;
6979;SDS011;3530;52.832;10.680;2022-10-14T03:14:15;14.00;;;9.18;;
6979;SDS011;3530;52.832;10.680;2022-10-14T03:17:01;10.48;;;7.38;;
6979;SDS011;3530;52.832;10.680;2022-10-14T03:19:47;14.98;;;9.50;;
6979;SDS011;3530;52.832;10.680;2022-10-14T03:22:32;13.02;;;8.60;;
6979;SDS011;3530;52.832;10.680;2022-10-14T03:25:18;15.20;;;10.25;;
6979;SDS011;3530;52.832;10.680;2022-10-14T03:28:04;10.65;;;8.05;;
6979;SDS011;3530;52.832;10.680;2022-10-14T03:30:49;11.48;;;8.07;;
6979;SDS011;3530;52.832;10.680;2022-10-14T03:33:35;16.63;;;9.80;;
6979;SDS011;3530;52.832;10.680;2022-10-14T03:36:21;13.70;;;9.45;;
6979;SDS011;3530;52.832;10.680;2022-10-14T03:39:08;14.57;;;10.75;;
6979;SDS011;3530;52.832;10.680;2022-10-14T03:41:54;12.73;;;8.98;;
6979;SDS011;3530;52.832;10.680;2022-10-14T03:44:39;14.05;;;8.70;;
6979;SDS011;3530;52.832;10.680;2022-10-14T03:47:25;14.70;;;10.35;;
6979;SDS011;3530;52.832;10.680;2022-10-14T03:50:11;13.48;;;10.20;;
6979;SDS011;3530;52.832;10.680;2022-10-14T03:52:56;11.35;;;8.73;;
6979;SDS011;3530;52.832;10.680;2022-10-14T03:55:42;16.55;;;10.48;;
6979;SDS011;3530;52.832;10.680;2022-10-14T03:58:28;13.57;;;7.38;;
6979;SDS011;3530;52.832;10.680;2022-10-14T04:01:13;16.35;;;10.65;;
6979;SDS011;3530;52.832;10.680;2022-10-14T04:03:59;16.75;;;10.80;;
6979;SDS011;3530;52.832;10.680;2022-10-14T04:06:45;14.63;;;10.20;;
6979;SDS011;3530;52.832;10.680;2022-10-14T04:09:31;15.30;;;8.77;;
6979;SDS011;3530;52.832;10.680;2022-10-14T04:12:17;12.05;;;9.18;;
6979;SDS011;3530;52.832;10.680;2022-10-14T04:15:02;20.17;;;12.55;;
6979;SDS011;3530;52.832;10.680;2022-10-14T04:17:48;13.82;;;10.27;;
6979;SDS011;3530;52.832;10.680;2022-10-14T04:20:34;20.13;;;10.27;;
6979;SDS011;3530;52.832;10.680;2022-10-14T04:23:21;18.60;;;12.10;;
6979;SDS011;3530;52.832;10.680;2022-10-14T04:26:07;20.95;;;11.50;;
6979;SDS011;3530;52.832;10.680;2022-10-14T04:28:53;20.77;;;11.13;;
6979;SDS011;3530;52.832;10.680;2022-10-14T04:31:39;21.38;;;12.77;;
6979;SDS011;3530;52.832;10.680;2022-10-14T04:34:25;19.27;;;12.55;;
6979;SDS011;3530;52.832;10.680;2022-10-14T04:37:10;19.25;;;11.93;;
6979;SDS011;3530;52.832;10.680;2022-10-14T04:39:56;22.45;;;12.57;;
6979;SDS011;3530;52.832;10.680;2022-10-14T04:42:42;21.08;;;13.18;;
6979;SDS011;3530;52.832;10.680;2022-10-14T04:45:27;19.52;;;12.15;;
6979;SDS011;3530;52.832;10.680;2022-10-14T04:48:13;20.48;;;12.68;;
6979;SDS011;3530;52.832;10.680;2022-10-14T04:51:00;18.25;;;12.25;;
6979;SDS011;3530;52.832;10.680;2022-10-14T04:53:45;13.25;;;10.57;;
6979;SDS011;3530;52.832;10.680;2022-10-14T04:56:31;15.98;;;9.98;;
6979;SDS011;3530;52.832;10.680;2022-10-14T04:59:17;20.67;;;12.70;;
6979;SDS011;3530;52.832;10.680;2022-10-14T05:02:02;17.35;;;12.77;;
6979;SDS011;3530;52.832;10.680;2022-10-14T05:04:48;19.90;;;12.68;;
6979;SDS011;3530;52.832;10.680;2022-10-14T05:07:34;14.10;;;9.48;;
6979;SDS011;3530;52.832;10.680;2022-10-14T05:10:20;22.02;;;13.60;;
6979;SDS011;3530;52.832;10.680;2022-10-14T05:13:06;21.15;;;12.50;;
6979;SDS011;3530;52.832;10.680;2022-10-14T05:15:51;22.92;;;13.55;;
6979;SDS011;3530;52.832;10.680;2022-10-14T05:18:37;22.02;;;13.35;;
6979;SDS011;3530;52.832;10.680;2022-10-14T05:21:23;19.23;;;12.48;;
6979;SDS011;3530;52.832;10.680;2022-10-14T05:24:08;19.08;;;11.90;;
6979;SDS011;3530;52.832;10.680;2022-10-14T05:26:54;13.85;;;8.82;;
6979;SDS011;3530;52.832;10.680;2022-10-14T05:29:40;16.02;;;8.90;;
6979;SDS011;3530;52.832;10.680;2022-10-14T05:32:25;26.48;;;13.82;;
6979;SDS011;3530;52.832;10.680;2022-10-14T05:35:11;22.42;;;13.05;;
6979;SDS011;3530;52.832;10.680;2022-10-14T05:37:57;23.92;;;13.43;;
6979;SDS011;3530;52.832;10.680;2022-10-14T05:40:49;23.27;;;13.90;;
6979;SDS011;3530;52.832;10.680;2022-10-14T05:43:35;18.52;;;12.45;;
6979;SDS011;3530;52.832;10.680;2022-10-14T05:46:21;20.35;;;12.27;;
6979;SDS011;3530;52.832;10.680;2022-10-14T05:49:07;16.05;;;11.13;;
6979;SDS011;3530;52.832;10.680;2022-10-14T05:51:54;20.15;;;14.00;;
6979;SDS011;3530;52.832;10.680;2022-10-14T05:54:39;23.25;;;13.63;;
6979;SDS011;3530;52.832;10.680;2022-10-14T05:57:26;23.40;;;12.82;;
6979;SDS011;3530;52.832;10.680;2022-10-14T06:00:12;25.77;;;14.18;;
6979;SDS011;3530;52.832;10.680;2022-10-14T06:02:58;26.23;;;14.68;;
6979;SDS011;3530;52.832;10.680;2022-10-14T06:05:44;19.38;;;12.75;;
6979;SDS011;3530;52.832;10.680;2022-10-14T06:08:29;22.42;;;13.68;;
6979;SDS011;3530;52.832;10.680;2022-10-14T06:11:15;19.48;;;12.82;;
6979;SDS011;3530;52.832;10.680;2022-10-14T06:14:01;23.67;;;13.43;;
6979;SDS011;3530;52.832;10.680;2022-10-14T06:16:48;23.83;;;13.73;;
6979;SDS011;3530;52.832;10.680;2022-10-14T06:19:35;23.75;;;11.73;;
6979;SDS011;3530;52.832;10.680;2022-10-14T06:22:20;24.42;;;14.20;;
6979;SDS011;3530;52.832;10.680;2022-10-14T06:25:06;20.75;;;13.70;;
6979;SDS011;3530;52.832;10.680;2022-10-14T06:27:52;24.50;;;13.68;;
6979;SDS011;3530;52.832;10.680;2022-10-14T06:30:38;23.45;;;13.50;;
6979;SDS011;3530;52.832;10.680;2022-10-14T06:33:23;21.20;;;12.82;;
6979;SDS011;3530;52.832;10.680;2022-10-14T06:36:09;24.60;;;14.57;;
6979;SDS011;3530;52.832;10.680;2022-10-14T06:38:56;23.33;;;12.70;;
6979;SDS011;3530;52.832;10.680;2022-10-14T06:41:41;18.83;;;11.60;;
6979;SDS011;3530;52.832;10.680;2022-10-14T06:44:27;22.17;;;14.38;;
6979;SDS011;3530;52.832;10.680;2022-10-14T06:47:13;17.85;;;11.57;;
6979;SDS011;3530;52.832;10.680;2022-10-14T06:49:58;21.17;;;11.73;;
6979;SDS011;3530;52.832;10.680;2022-10-14T06:52:44;16.92;;;10.38;;
6979;SDS011;3530;52.832;10.680;2022-10-14T06:55:30;16.48;;;11.15;;
6979;SDS011;3530;52.832;10.680;2022-10-14T06:58:16;15.05;;;9.85;;
6979;SDS011;3530;52.832;10.680;2022-10-14T07:01:05;25.88;;;15.60;;
6979;SDS011;3530;52.832;10.680;2022-10-14T07:03:51;28.88;;;15.98;;
6979;SDS011;3530;52.832;10.680;2022-10-14T07:06:37;16.27;;;11.85;;
6979;SDS011;3530;52.832;10.680;2022-10-14T07:09:23;18.08;;;11.18;;
6979;SDS011;3530;52.832;10.680;2022-10-14T07:12:09;24.52;;;14.05;;
6979;SDS011;3530;52.832;10.680;2022-10-14T07:14:54;17.58;;;11.23;;
6979;SDS011;3530;52.832;10.680;2022-10-14T07:17:40;14.13;;;11.00;;
6979;SDS011;3530;52.832;10.680;2022-10-14T07:20:26;23.05;;;13.20;;
6979;SDS011;3530;52.832;10.680;2022-10-14T07:23:12;23.38;;;15.00;;
6979;SDS011;3530;52.832;10.680;2022-10-14T07:25:58;25.70;;;14.77;;
6979;SDS011;3530;52.832;10.680;2022-10-14T07:28:44;17.63;;;11.18;;
6979;SDS011;3530;52.832;10.680;2022-10-14T07:31:30;17.20;;;10.25;;
6979;SDS011;3530;52.832;10.680;2022-10-14T07:34:16;20.10;;;11.27;;
6979;SDS011;3530;52.832;10.680;2022-10-14T07:37:02;16.15;;;9.50;;
6979;SDS011;3530;52.832;10.680;2022-10-14T07:39:48;14.60;;;9.85;;
6979;SDS011;3530;52.832;10.680;2022-10-14T07:42:34;23.95;;;16.13;;
6979;SDS011;3530;52.832;10.680;2022-10-14T07:45:19;27.27;;;16.25;;
6979;SDS011;3530;52.832;10.680;2022-10-14T07:48:05;17.75;;;12.38;;
6979;SDS011;3530;52.832;10.680;2022-10-14T07:50:51;15.82;;;8.60;;
6979;SDS011;3530;52.832;10.680;2022-10-14T07:53:36;23.90;;;14.25;;
6979;SDS011;3530;52.832;10.680;2022-10-14T07:56:22;16.85;;;10.30;;
6979;SDS011;3530;52.832;10.680;2022-10-14T07:59:08;18.83;;;12.40;;
6979;SDS011;3530;52.832;10.680;2022-10-14T08:01:54;26.00;;;14.48;;
6979;SDS011;3530;52.832;10.680;2022-10-14T08:04:40;21.10;;;12.60;;
6979;SDS011;3530;52.832;10.680;2022-10-14T08:07:26;20.10;;;12.88;;
6979;SDS011;3530;52.832;10.680;2022-10-14T08:10:13;24.00;;;14.63;;
6979;SDS011;3530;52.832;10.680;2022-10-14T08:12:59;20.50;;;13.07;;
6979;SDS011;3530;52.832;10.680;2022-10-14T08:15:44;22.48;;;13.18;;
6979;SDS011;3530;52.832;10.680;2022-10-14T08:18:30;16.17;;;10.20;;
6979;SDS011;3530;52.832;10.680;2022-10-14T08:21:16;19.25;;;10.80;;
6979;SDS011;3530;52.832;10.680;2022-10-14T08:24:03;15.27;;;9.98;;
6979;SDS011;3530;52.832;10.680;2022-10-14T08:26:49;21.67;;;12.85;;
6979;SDS011;3530;52.832;10.680;2022-10-14T08:29:36;20.75;;;13.00;;
6979;SDS011;3530;52.832;10.680;2022-10-14T08:32:22;16.13;;;10.43;;
6979;SDS011;3530;52.832;10.680;2022-10-14T08:35:08;17.25;;;11.50;;
6979;SDS011;3530;52.832;10.680;2022-10-14T08:37:55;13.38;;;9.80;;
6979;SDS011;3530;52.832;10.680;2022-10-14T08:40:54;14.43;;;9.95;;
6979;SDS011;3530;52.832;10.680;2022-10-14T08:43:56;22.13;;;13.60;;
6979;SDS011;3530;52.832;10.680;2022-10-14T08:46:51;13.45;;;9.15;;
6979;SDS011;3530;52.832;10.680;2022-10-14T08:52:52;20.40;;;13.40;;
6979;SDS011;3530;52.832;10.680;2022-10-14T08:55:49;17.80;;;11.70;;
6979;SDS011;3530;52.832;10.680;2022-10-14T08:58:36;21.98;;;12.80;;
6979;SDS011;3530;52.832;10.680;2022-10-14T09:01:31;16.08;;;10.18;;
6979;SDS011;3530;52.832;10.680;2022-10-14T09:04:18;14.40;;;9.38;;
6979;SDS011;3530;52.832;10.680;2022-10-14T09:07:04;16.17;;;9.95;;
6979;SDS011;3530;52.832;10.680;2022-10-14T09:09:50;23.27;;;11.85;;
6979;SDS011;3530;52.832;10.680;2022-10-14T09:12:37;17.02;;;10.95;;
6979;SDS011;3530;52.832;10.680;2022-10-14T09:15:29;14.63;;;9.38;;
6979;SDS011;3530;52.832;10.680;2022-10-14T09:18:24;15.65;;;9.98;;
6979;SDS011;3530;52.832;10.680;2022-10-14T09:21:34;14.88;;;10.10;;
6979;SDS011;3530;52.832;10.680;2022-10-14T09:24:26;12.15;;;9.43;;
6979;SDS011;3530;52.832;10.680;2022-10-14T09:27:15;10.82;;;8.43;;
6979;SDS011;3530;52.832;10.680;2022-10-14T09:30:03;14.18;;;10.48;;
6979;SDS011;3530;52.832;10.680;2022-10-14T09:32:54;12.88;;;9.00;;
6979;SDS011;3530;52.832;10.680;2022-10-14T09:35:40;14.30;;;9.85;;
6979;SDS011;3530;52.832;10.680;2022-10-14T09:38:26;13.13;;;9.43;;
6979;SDS011;3530;52.832;10.680;2022-10-14T09:41:13;18.35;;;11.05;;
6979;SDS011;3530;52.832;10.680;2022-10-14T09:47:05;17.90;;;9.68;;
6979;SDS011;3530;52.832;10.680;2022-10-14T09:49:55;14.40;;;9.13;;
6979;SDS011;3530;52.832;10.680;2022-10-14T09:52:47;19.48;;;11.85;;
6979;SDS011;3530;52.832;10.680;2022-10-14T09:55:34;14.80;;;10.20;;
6979;SDS011;3530;52.832;10.680;2022-10-14T09:58:24;14.95;;;10.82;;
6979;SDS011;3530;52.832;10.680;2022-10-14T10:01:15;14.18;;;10.25;;
6979;SDS011;3530;52.832;10.680;2022-10-14T10:04:22;18.15;;;12.68;;
6979;SDS011;3530;52.832;10.680;2022-10-14T10:10:19;17.25;;;11.35;;
6979;SDS011;3530;52.832;10.680;2022-10-14T10:13:22;19.30;;;12.20;;
6979;SDS011;3530;52.832;10.680;2022-10-14T10:16:18;17.27;;;11.02;;
6979;SDS011;3530;52.832;10.680;2022-10-14T10:19:24;19.85;;;11.88;;
6979;SDS011;3530;52.832;10.680;2022-10-14T10:22:19;14.45;;;8.75;;
6979;SDS011;3530;52.832;10.680;2022-10-14T10:27:59;16.25;;;10.18;;
6979;SDS011;3530;52.832;10.680;2022-10-14T10:37:30;13.98;;;9.57;;
6979;SDS011;3530;52.832;10.680;2022-10-14T10:40:34;15.48;;;9.38;;
6979;SDS011;3530;52.832;10.680;2022-10-14T10:43:26;14.10;;;8.65;;
6979;SDS011;3530;52.832;10.680;2022-10-14T10:49:55;16.98;;;10.93;;
6979;SDS011;3530;52.832;10.680;2022-10-14T10:59:24;13.63;;;10.02;;
6979;SDS011;3530;52.832;10.680;2022-10-14T11:06:06;14.13;;;8.88;;
6979;SDS011;3530;52.832;10.680;2022-10-14T11:09:33;16.60;;;8.98;;
6979;SDS011;3530;52.832;10.680;2022-10-14T11:18:45;12.13;;;7.93;;
6979;SDS011;3530;52.832;10.680;2022-10-14T11:27:46;10.73;;;7.00;;
6979;SDS011;3530;52.832;10.680;2022-10-14T11:30:45;9.70;;;6.63;;
6979;SDS011;3530;52.832;10.680;2022-10-14T11:33:53;10.55;;;6.68;;
6979;SDS011;3530;52.832;10.680;2022-10-14T11:46:11;10.57;;;6.22;;
6979;SDS011;3530;52.832;10.680;2022-10-14T11:49:00;8.57;;;6.07;;
6979;SDS011;3530;52.832;10.680;2022-10-14T11:51:51;7.47;;;5.63;;
6979;SDS011;3530;52.832;10.680;2022-10-14T11:54:43;8.05;;;6.30;;
6979;SDS011;3530;52.832;10.680;2022-10-14T11:57:34;6.65;;;5.60;;
6979;SDS011;3530;52.832;10.680;2022-10-14T12:00:24;6.22;;;4.90;;
6979;SDS011;3530;52.832;10.680;2022-10-14T12:06:45;5.60;;;5.00;;
6979;SDS011;3530;52.832;10.680;2022-10-14T12:09:37;5.72;;;4.85;;
6979;SDS011;3530;52.832;10.680;2022-10-14T12:12:45;6.22;;;4.75;;
6979;SDS011;3530;52.832;10.680;2022-10-14T12:15:31;4.60;;;4.20;;
6979;SDS011;3530;52.832;10.680;2022-10-14T12:18:17;6.10;;;5.15;;
6979;SDS011;3530;52.832;10.680;2022-10-14T12:21:11;8.43;;;6.72;;
6979;SDS011;3530;52.832;10.680;2022-10-14T12:24:02;6.75;;;6.03;;
6979;SDS011;3530;52.832;10.680;2022-10-14T12:26:51;8.57;;;6.65;;
6979;SDS011;3530;52.832;10.680;2022-10-14T12:29:49;5.70;;;4.82;;
6979;SDS011;3530;52.832;10.680;2022-10-14T12:32:35;5.25;;;4.75;;
6979;SDS011;3530;52.832;10.680;2022-10-14T12:35:55;7.00;;;4.40;;
6979;SDS011;3530;52.832;10.680;2022-10-14T12:38:45;5.30;;;4.65;;
6979;SDS011;3530;52.832;10.680;2022-10-14T12:42:12;5.13;;;4.63;;
6979;SDS011;3530;52.832;10.680;2022-10-14T12:44:59;4.55;;;4.05;;
6979;SDS011;3530;52.832;10.680;2022-10-14T12:47:45;5.88;;;4.20;;
6979;SDS011;3530;52.832;10.680;2022-10-14T12:50:35;3.95;;;3.65;;
6979;SDS011;3530;52.832;10.680;2022-10-14T12:53:26;4.80;;;4.25;;
6979;SDS011;3530;52.832;10.680;2022-10-14T12:56:26;5.13;;;4.63;;
6979;SDS011;3530;52.832;10.680;2022-10-14T12:59:30;7.75;;;3.78;;
6979;SDS011;3530;52.832;10.680;2022-10-14T13:02:20;6.30;;;3.63;;
6979;SDS011;3530;52.832;10.680;2022-10-14T13:08:24;3.90;;;3.58;;
6979;SDS011;3530;52.832;10.680;2022-10-14T13:11:12;3.60;;;3.40;;
6979;SDS011;3530;52.832;10.680;2022-10-14T13:13:59;4.00;;;3.60;;
6979;SDS011;3530;52.832;10.680;2022-10-14T13:19:39;4.88;;;3.60;;
6979;SDS011;3530;52.832;10.680;2022-10-14T13:25:14;5.20;;;3.38;;
6979;SDS011;3530;52.832;10.680;2022-10-14T13:28:03;5.32;;;4.82;;
6979;SDS011;3530;52.832;10.680;2022-10-14T13:31:07;4.57;;;3.30;;
6979;SDS011;3530;52.832;10.680;2022-10-14T13:34:09;2.88;;;2.58;;
6979;SDS011;3530;52.832;10.680;2022-10-14T13:36:59;3.42;;;3.13;;
6979;SDS011;3530;52.832;10.680;2022-10-14T13:39:50;3.03;;;2.83;;
6979;SDS011;3530;52.832;10.680;2022-10-14T13:42:36;3.20;;;3.00;;
6979;SDS011;3530;52.832;10.680;2022-10-14T13:45:29;3.20;;;3.00;;
6979;SDS011;3530;52.832;10.680;2022-10-14T13:48:20;2.78;;;2.58;;
6979;SDS011;3530;52.832;10.680;2022-10-14T13:53:59;2.65;;;2.45;;
6979;SDS011;3530;52.832;10.680;2022-10-14T13:57:09;2.72;;;2.53;;
6979;SDS011;3530;52.832;10.680;2022-10-14T13:59:59;2.97;;;2.78;;
6979;SDS011;3530;52.832;10.680;2022-10-14T14:02:45;4.43;;;2.63;;
6979;SDS011;3530;52.832;10.680;2022-10-14T14:05:31;2.60;;;2.50;;
6979;SDS011;3530;52.832;10.680;2022-10-14T14:08:30;3.13;;;2.38;;
6979;SDS011;3530;52.832;10.680;2022-10-14T14:11:21;2.17;;;2.03;;
6979;SDS011;3530;52.832;10.680;2022-10-14T14:14:28;2.40;;;2.30;;
6979;SDS011;3530;52.832;10.680;2022-10-14T14:17:20;3.28;;;2.28;;
6979;SDS011;3530;52.832;10.680;2022-10-14T14:20:10;3.00;;;2.15;;
6979;SDS011;3530;52.832;10.680;2022-10-14T14:22:56;2.50;;;2.30;;
6979;SDS011;3530;52.832;10.680;2022-10-14T14:25:42;2.55;;;2.42;;
6979;SDS011;3530;52.832;10.680;2022-10-14T14:28:30;2.63;;;2.40;;
6979;SDS011;3530;52.832;10.680;2022-10-14T14:31:16;2.88;;;2.10;;
6979;SDS011;3530;52.832;10.680;2022-10-14T14:34:04;2.15;;;2.05;;
6979;SDS011;3530;52.832;10.680;2022-10-14T14:36:50;2.75;;;2.30;;
6979;SDS011;3530;52.832;10.680;2022-10-14T14:39:35;2.47;;;2.28;;
6979;SDS011;3530;52.832;10.680;2022-10-14T14:42:22;3.35;;;2.15;;
6979;SDS011;3530;52.832;10.680;2022-10-14T14:45:17;2.42;;;2.30;;
6979;SDS011;3530;52.832;10.680;2022-10-14T14:48:05;3.03;;;2.35;;
6979;SDS011;3530;52.832;10.680;2022-10-14T14:50:52;2.30;;;2.10;;
6979;SDS011;3530;52.832;10.680;2022-10-14T14:53:37;2.13;;;2.03;;
6979;SDS011;3530;52.832;10.680;2022-10-14T14:56:25;3.25;;;2.28;;
6979;SDS011;3530;52.832;10.680;2022-10-14T15:02:20;2.10;;;1.92;;
6979;SDS011;3530;52.832;10.680;2022-10-14T15:05:08;2.03;;;1.92;;
6979;SDS011;3530;52.832;10.680;2022-10-14T15:07:54;1.92;;;1.83;;
6979;SDS011;3530;52.832;10.680;2022-10-14T15:10:43;2.10;;;2.00;;
6979;SDS011;3530;52.832;10.680;2022-10-14T15:13:40;4.05;;;3.05;;
6979;SDS011;3530;52.832;10.680;2022-10-14T15:22:09;2.38;;;2.28;;
6979;SDS011;3530;52.832;10.680;2022-10-14T15:28:26;5.05;;;3.75;;
6979;SDS011;3530;52.832;10.680;2022-10-14T15:31:17;4.47;;;2.95;;
6979;SDS011;3530;52.832;10.680;2022-10-14T15:34:03;3.42;;;2.50;;
6979;SDS011;3530;52.832;10.680;2022-10-14T15:36:50;10.35;;;4.28;;
6979;SDS011;3530;52.832;10.680;2022-10-14T15:39:36;5.80;;;3.17;;
6979;SDS011;3530;52.832;10.680;2022-10-14T15:42:22;14.25;;;4.32;;
6979;SDS011;3530;52.832;10.680;2022-10-14T15:45:08;7.13;;;3.53;;
6979;SDS011;3530;52.832;10.680;2022-10-14T15:47:55;2.80;;;2.60;;
6979;SDS011;3530;52.832;10.680;2022-10-14T15:50:44;4.10;;;3.03;;
6979;SDS011;3530;52.832;10.680;2022-10-14T15:53:30;4.97;;;3.00;;
6979;SDS011;3530;52.832;10.680;2022-10-14T15:56:16;3.10;;;2.85;;
6979;SDS011;3530;52.832;10.680;2022-10-14T15:59:02;7.45;;;3.58;;
6979;SDS011;3530;52.832;10.680;2022-10-14T16:01:48;8.27;;;4.70;;
6979;SDS011;3530;52.832;10.680;2022-10-14T16:04:34;16.17;;;5.90;;
6979;SDS011;3530;52.832;10.680;2022-10-14T16:07:20;17.73;;;6.97;;
6979;SDS011;3530;52.832;10.680;2022-10-14T16:10:07;6.03;;;3.38;;
6979;SDS011;3530;52.832;10.680;2022-10-14T16:12:54;3.28;;;2.50;;
6979;SDS011;3530;52.832;10.680;2022-10-14T16:18:32;2.88;;;2.67;;
6979;SDS011;3530;52.832;10.680;2022-10-14T16:21:17;2.40;;;2.30;;
6979;SDS011;3530;52.832;10.680;2022-10-14T16:24:03;5.20;;;2.10;;
6979;SDS011;3530;52.832;10.680;2022-10-14T16:26:50;3.28;;;2.58;;
6979;SDS011;3530;52.832;10.680;2022-10-14T16:29:36;2.50;;;2.30;;
6979;SDS011;3530;52.832;10.680;2022-10-14T16:32:21;2.60;;;2.40;;
6979;SDS011;3530;52.832;10.680;2022-10-14T16:35:07;2.40;;;2.20;;
6979;SDS011;3530;52.832;10.680;2022-10-14T16:37:53;2.97;;;2.78;;
6979;SDS011;3530;52.832;10.680;2022-10-14T16:40:39;2.60;;;2.28;;
6979;SDS011;3530;52.832;10.680;2022-10-14T16:43:25;3.13;;;2.42;;
6979;SDS011;3530;52.832;10.680;2022-10-14T16:46:12;3.15;;;2.35;;
6979;SDS011;3530;52.832;10.680;2022-10-14T16:48:58;3.00;;;2.72;;
6979;SDS011;3530;52.832;10.680;2022-10-14T16:51:44;2.65;;;2.45;;
6979;SDS011;3530;52.832;10.680;2022-10-14T16:54:29;2.80;;;2.58;;
6979;SDS011;3530;52.832;10.680;2022-10-14T16:57:15;2.72;;;2.55;;
6979;SDS011;3530;52.832;10.680;2022-10-14T17:00:01;2.53;;;2.40;;
6979;SDS011;3530;52.832;10.680;2022-10-14T17:02:46;5.40;;;3.08;;
6979;SDS011;3530;52.832;10.680;2022-10-14T17:05:32;5.20;;;2.95;;
6979;SDS011;3530;52.832;10.680;2022-10-14T17:08:18;8.57;;;4.95;;
6979;SDS011;3530;52.832;10.680;2022-10-14T17:11:04;6.43;;;4.22;;
6979;SDS011;3530;52.832;10.680;2022-10-14T17:13:50;2.90;;;2.65;;
6979;SDS011;3530;52.832;10.680;2022-10-14T17:16:37;3.45;;;2.72;;
6979;SDS011;3530;52.832;10.680;2022-10-14T17:19:22;3.10;;;2.90;;
6979;SDS011;3530;52.832;10.680;2022-10-14T17:22:08;2.75;;;2.60;;
6979;SDS011;3530;52.832;10.680;2022-10-14T17:24:55;3.63;;;3.13;;
6979;SDS011;3530;52.832;10.680;2022-10-14T17:27:40;2.80;;;2.55;;
6979;SDS011;3530;52.832;10.680;2022-10-14T17:30:26;6.10;;;3.42;;
6979;SDS011;3530;52.832;10.680;2022-10-14T17:33:12;5.22;;;4.15;;
6979;SDS011;3530;52.832;10.680;2022-10-14T17:35:59;7.38;;;4.22;;
6979;SDS011;3530;52.832;10.680;2022-10-14T17:38:45;5.53;;;3.95;;
6979;SDS011;3530;52.832;10.680;2022-10-14T17:41:32;6.18;;;5.10;;
6979;SDS011;3530;52.832;10.680;2022-10-14T17:44:17;4.50;;;3.60;;
6979;SDS011;3530;52.832;10.680;2022-10-14T17:47:03;3.35;;;3.05;;
6979;SDS011;3530;52.832;10.680;2022-10-14T17:49:49;8.57;;;3.05;;
6979;SDS011;3530;52.832;10.680;2022-10-14T17:52:35;7.13;;;4.60;;
6979;SDS011;3530;52.832;10.680;2022-10-14T17:55:20;4.13;;;3.60;;
6979;SDS011;3530;52.832;10.680;2022-10-14T17:58:06;3.65;;;3.28;;
6979;SDS011;3530;52.832;10.680;2022-10-14T18:00:52;3.75;;;3.35;;
6979;SDS011;3530;52.832;10.680;2022-10-14T18:03:38;7.90;;;4.68;;
6979;SDS011;3530;52.832;10.680;2022-10-14T18:06:28;4.35;;;3.30;;
6979;SDS011;3530;52.832;10.680;2022-10-14T18:09:15;4.88;;;3.50;;
6979;SDS011;3530;52.832;10.680;2022-10-14T18:12:01;7.57;;;3.80;;
6979;SDS011;3530;52.832;10.680;2022-10-14T18:14:46;3.67;;;3.38;;
6979;SDS011;3530;52.832;10.680;2022-10-14T18:17:32;9.35;;;3.33;;
6979;SDS011;3530;52.832;10.680;2022-10-14T18:20:18;4.38;;;3.22;;
6979;SDS011;3530;52.832;10.680;2022-10-14T18:23:03;3.67;;;3.28;;
6979;SDS011;3530;52.832;10.680;2022-10-14T18:25:51;4.13;;;3.65;;
6979;SDS011;3530;52.832;10.680;2022-10-14T18:28:37;3.95;;;3.25;;
6979;SDS011;3530;52.832;10.680;2022-10-14T18:31:25;3.58;;;3.28;;
6979;SDS011;3530;52.832;10.680;2022-10-14T18:34:12;4.03;;;3.13;;